Aérodrome :
LOGIN :

S'inscrire | Disclaimer

   EN    FR    IT 

 










Légende :    VFR   VFR Marginal   IFR   IFR Intensif   IFR Très Intensif
Visi : 
Plafond : 
>= 8 km
>= 3000ft
5 à 8 km
1000 à 3000 ft
1500m à 5 km
500 à 1000 ft
800 à 1500m
200 à 500 ft
< 800m
< 200 ft
Symboles :   Orages  Brouillard  Fortes neiges  Fortes précipitations  Vent > 20 kt
SIGMETs :   Divers  Orages  Givrage  Turbulence  Onde Orograph.  Cendres Volcan.






- Altitude de l'aérodrome : 160 ft
- Code IATA : LRT


LFRH - Lorient Lann Bihoue

DERNIER METAR :
  • 241700Z AUTO 25019KT 2700 -DZ BR OVC003 10/10 Q1016 BECMG 24018G28KT 1400 RA

METARs EXPIRÉS :
  • 241630Z AUTO 25018KT 3000 -DZ BR BKN003 OVC008 10/10 Q1017 BECMG 24018G28KT 1400 RA
  • 241600Z AUTO 25019KT 9999 3500 OVC009 11/09 Q1017 BECMG 24018G28KT 1400 RA BKN003 OVC005
  • 241530Z AUTO 25019G30KT 4000 -DZ BR BKN008 OVC013 11/10 Q1017 BECMG 1400 RA BKN003 OVC005
  • 241500Z AUTO 25019KT 9999 OVC011 11/10 Q1018 BECMG 24018G28KT 3000 RADZ BKN005 OVC006
  • 241430Z AUTO 25017KT 9999 SCT010 OVC016 11/10 Q1018 BECMG 24018G28KT 3000 RADZ BKN005 OVC006

TAF TAF LFRH
Valide du 24 à 12h jusqu'au 25 à 12h UTC


241100Z 2412/2512 24018G28KT 9999 SCT010 BKN015 OVC020
BECMG 2414/2416 3000 RADZ BKN005 OVC006
BECMG 2417/2419 1400 RA BKN003 OVC005
BECMG 2423/2501 28015KT 9999 NSW BKN012 BKN040
TEMPO 2507/2512 26018G30KT 4000 SHRA SCT015TCU
BECMG 2510/2512 26029G40KT



MET'MAP, la Météo Aéronautique d'un coup d'oeil ! - Copyright ORBIFLY Décembre 2007 - Disclaimer

ORBIFLY MET'MAP TEAM :

Programmation & Développement : Alexandra Zaïnal
Sur une idée originale de : Baudouin d'Aumeries
Assistance à la programmation : Marc-Olivier Méhu
Soutien technique & logistique : Manuel Goepfert

Contact : metmap@orbifly.com




SOURCES & CREDITS :

   NOAA